Time;durP1;ratioP1;P1;durP2;ratioP2;P2;SDS_P1;SDS_P2;PMS_P1;PMS_P2;Temp;Humidity;BMP_temperature;BMP_pressure;BME280_temperature;BME280_humidity;BME280_pressure;Samples;Min_cycle;Max_cycle;Signal;HPM_P1;HPM_P2
2021/06/26 00:01:38;;;;;;;10.60;3.38;;;15.50;79.80;;;;;;6091223;23;20009;-66
2021/06/26 00:04:06;;;;;;;16.35;4.22;;;15.50;79.90;;;;;;6092072;23;20078;-66
2021/06/26 00:06:35;;;;;;;12.43;2.95;;;15.50;79.90;;;;;;6091473;23;20007;-66
2021/06/26 00:09:03;;;;;;;9.18;1.88;;;15.50;80.00;;;;;;6092860;23;20025;-64
2021/06/26 00:11:29;;;;;;;12.60;3.83;;;15.50;80.10;;;;;;6093133;23;20435;-64
2021/06/26 00:13:56;;;;;;;8.88;2.88;;;15.50;80.70;;;;;;6093209;23;20143;-65
2021/06/26 00:16:22;;;;;;;10.32;3.33;;;15.50;81.50;;;;;;6093423;23;20006;-64
2021/06/26 00:18:49;;;;;;;6.90;2.30;;;15.40;82.10;;;;;;6092291;23;19997;-65
2021/06/26 00:21:16;;;;;;;9.57;2.30;;;15.40;82.60;;;;;;6093687;23;20006;-65
2021/06/26 00:23:42;;;;;;;12.75;3.67;;;15.50;82.80;;;;;;6091958;23;20002;-65
2021/06/26 00:26:09;;;;;;;11.15;2.67;;;15.40;82.90;;;;;;6093031;23;20358;-65
2021/06/26 00:28:35;;;;;;;6.30;2.65;;;15.40;83.10;;;;;;6092220;23;20485;-65
2021/06/26 00:31:02;;;;;;;12.23;2.60;;;15.40;83.20;;;;;;6093401;23;20006;-66
2021/06/26 00:33:28;;;;;;;5.75;2.10;;;15.40;83.20;;;;;;6093840;23;19999;-66
2021/06/26 00:35:55;;;;;;;5.78;2.65;;;15.40;83.40;;;;;;6092776;23;20085;-65
2021/06/26 00:38:21;;;;;;;8.07;2.15;;;15.40;83.50;;;;;;6093626;23;20009;-65
2021/06/26 00:40:48;;;;;;;9.02;3.22;;;15.40;83.50;;;;;;6092180;23;20006;-65
2021/06/26 00:43:15;;;;;;;6.45;2.13;;;15.40;83.50;;;;;;6093145;23;20387;-65
2021/06/26 00:45:42;;;;;;;8.60;2.90;;;15.30;83.50;;;;;;6092424;23;20025;-65
2021/06/26 00:48:08;;;;;;;9.77;3.20;;;15.40;83.70;;;;;;6093505;23;20338;-65
2021/06/26 00:50:35;;;;;;;13.45;3.80;;;15.40;83.80;;;;;;6092894;23;20064;-65
2021/06/26 00:53:01;;;;;;;13.07;3.60;;;15.40;83.90;;;;;;6092213;23;20023;-64
2021/06/26 00:55:29;;;;;;;13.20;3.40;;;15.40;84.00;;;;;;6093198;23;20457;-65
2021/06/26 00:57:58;;;;;;;14.38;3.97;;;15.40;84.30;;;;;;6092133;23;20003;-65
2021/06/26 01:00:26;;;;;;;15.82;4.40;;;15.40;84.40;;;;;;6093128;23;20005;-65
2021/06/26 01:02:53;;;;;;;15.02;3.67;;;15.40;84.60;;;;;;6091865;23;20002;-65
2021/06/26 01:05:20;;;;;;;14.73;3.67;;;15.40;84.60;;;;;;6093652;23;20100;-65
2021/06/26 01:07:47;;;;;;;18.35;6.22;;;15.40;84.70;;;;;;6092621;23;20030;-65
2021/06/26 01:10:14;;;;;;;16.80;6.35;;;15.40;84.70;;;;;;6092198;23;20050;-64
2021/06/26 01:12:41;;;;;;;15.93;4.60;;;15.40;84.80;;;;;;6093416;23;20095;-65
2021/06/26 01:15:10;;;;;;;20.90;5.45;;;15.40;84.80;;;;;;6091987;23;20010;-65
2021/06/26 01:17:37;;;;;;;20.67;4.72;;;15.40;84.80;;;;;;6093529;23;20021;-65
2021/06/26 01:20:07;;;;;;;13.90;5.43;;;15.40;84.80;;;;;;6092030;23;20363;-65
2021/06/26 01:22:41;;;;;;;10.77;3.25;;;15.40;84.80;;;;;;6093235;23;20007;-65
2021/06/26 01:25:08;;;;;;;11.00;3.78;;;15.40;84.80;;;;;;6092438;23;20030;-65
2021/06/26 01:27:34;;;;;;;15.50;4.60;;;15.40;84.80;;;;;;6092431;23;20010;-65
2021/06/26 01:30:01;;;;;;;14.50;5.32;;;15.40;84.80;;;;;;6093052;23;20017;-65
2021/06/26 01:32:27;;;;;;;17.17;5.05;;;15.40;84.70;;;;;;6091661;23;20356;-65
2021/06/26 01:34:54;;;;;;;11.60;3.83;;;15.40;84.60;;;;;;6093284;23;20371;-64
2021/06/26 01:37:20;;;;;;;15.02;4.20;;;15.40;84.50;;;;;;6091502;23;20396;-65
2021/06/26 01:39:46;;;;;;;12.93;4.63;;;15.40;84.30;;;;;;6094769;23;20002;-65
2021/06/26 01:42:14;;;;;;;14.32;4.05;;;15.40;84.10;;;;;;6094228;23;20366;-65
2021/06/26 01:44:40;;;;;;;10.35;3.35;;;15.40;84.30;;;;;;6094469;23;20037;-65
2021/06/26 01:47:08;;;;;;;14.38;4.05;;;15.30;83.60;;;;;;6094524;23;20006;-65
2021/06/26 01:49:37;;;;;;;13.93;4.20;;;15.30;83.50;;;;;;6093542;23;20015;-66
2021/06/26 01:52:05;;;;;;;23.08;4.93;;;15.30;83.40;;;;;;6095123;23;20054;-65
2021/06/26 01:54:31;;;;;;;15.15;3.50;;;15.30;83.20;;;;;;6094177;23;20364;-65
2021/06/26 01:56:58;;;;;;;15.23;3.70;;;15.30;83.00;;;;;;6094762;23;20073;-65
2021/06/26 01:59:24;;;;;;;16.90;4.93;;;15.20;82.80;;;;;;6093408;23;20058;-65
2021/06/26 02:01:51;;;;;;;7.50;3.38;;;15.20;82.70;;;;;;6094975;23;20098;-65
2021/06/26 02:04:17;;;;;;;14.10;3.72;;;15.20;82.60;;;;;;6095031;23;20062;-65
2021/06/26 02:06:44;;;;;;;18.15;5.35;;;15.20;82.60;;;;;;6093589;23;20010;-66
2021/06/26 02:09:11;;;;;;;11.50;3.85;;;15.20;82.60;;;;;;6094229;23;20431;-64
2021/06/26 02:11:37;;;;;;;16.88;4.30;;;15.20;83.20;;;;;;6093250;23;20002;-65
2021/06/26 02:14:04;;;;;;;16.42;4.13;;;15.20;82.50;;;;;;6095078;23;20006;-64
2021/06/26 02:16:30;;;;;;;15.85;6.65;;;15.20;82.50;;;;;;6093257;23;19998;-65
2021/06/26 02:18:57;;;;;;;13.40;5.43;;;15.20;82.30;;;;;;6094608;23;20007;-65
2021/06/26 02:21:23;;;;;;;17.55;5.75;;;15.20;82.10;;;;;;6094103;23;20367;-65
2021/06/26 02:23:50;;;;;;;15.05;4.88;;;15.20;81.90;;;;;;6093799;23;20007;-65
2021/06/26 02:26:17;;;;;;;13.32;5.78;;;15.20;81.80;;;;;;6094879;23;20334;-64
2021/06/26 02:28:43;;;;;;;16.02;3.80;;;15.20;81.90;;;;;;6092842;23;20014;-64
2021/06/26 02:31:10;;;;;;;15.93;4.28;;;15.20;82.20;;;;;;6094340;23;19994;-63
2021/06/26 02:33:36;;;;;;;13.18;5.78;;;15.20;82.50;;;;;;6092873;23;19999;-64
2021/06/26 02:36:03;;;;;;;17.42;3.92;;;15.20;82.70;;;;;;6094223;23;20080;-63
2021/06/26 02:38:29;;;;;;;15.52;3.50;;;15.20;82.70;;;;;;6094030;23;20025;-64
2021/06/26 02:40:56;;;;;;;19.23;5.07;;;15.20;82.60;;;;;;6093711;23;20007;-64
2021/06/26 02:43:22;;;;;;;9.93;3.25;;;15.20;82.50;;;;;;6093902;23;19998;-64
2021/06/26 02:45:49;;;;;;;14.02;5.18;;;15.20;82.50;;;;;;6093176;23;20005;-65
2021/06/26 02:48:15;;;;;;;11.57;4.05;;;15.20;82.60;;;;;;6094178;23;20014;-65
2021/06/26 02:50:42;;;;;;;12.63;3.95;;;15.20;82.60;;;;;;6092287;23;19998;-65
2021/06/26 02:53:09;;;;;;;15.90;4.22;;;15.20;82.70;;;;;;6093983;23;19998;-68
2021/06/26 02:55:36;;;;;;;15.02;4.18;;;15.20;82.70;;;;;;6092977;23;20002;-65
2021/06/26 02:58:03;;;;;;;19.10;8.98;;;15.20;82.80;;;;;;6093898;23;20002;-66
2021/06/26 03:00:29;;;;;;;23.88;12.70;;;15.20;82.80;;;;;;6093873;23;20013;-65
2021/06/26 03:02:56;;;;;;;23.90;9.07;;;15.20;82.90;;;;;;6093096;23;19991;-68
2021/06/26 03:06:02;;;;;;;20.52;9.32;;;15.20;82.90;;;;;;6088531;23;20077;-66
2021/06/26 03:09:08;;;;;;;21.50;7.78;;;15.20;82.90;;;;;;6088100;23;20026;-66
2021/06/26 03:12:14;;;;;;;21.85;8.00;;;15.20;82.80;;;;;;6088801;23;20332;-66
2021/06/26 03:15:20;;;;;;;16.65;7.10;;;15.20;82.80;;;;;;6092366;23;20030;-66
2021/06/26 03:18:26;;;;;;;24.25;7.50;;;15.20;82.70;;;;;;6091884;23;19998;-65
2021/06/26 03:21:32;;;;;;;18.63;5.90;;;15.20;82.60;;;;;;6091080;23;20024;-66
2021/06/26 03:24:38;;;;;;;16.90;5.80;;;15.20;82.60;;;;;;6093511;23;20007;-66
2021/06/26 03:27:44;;;;;;;22.10;6.45;;;15.20;82.50;;;;;;6093777;23;19998;-66
2021/06/26 03:30:50;;;;;;;13.02;5.22;;;15.20;82.40;;;;;;6092307;23;20320;-66
2021/06/26 03:33:56;;;;;;;15.75;4.72;;;15.20;82.30;;;;;;6092874;23;20073;-65
2021/06/26 03:37:03;;;;;;;19.23;5.90;;;15.20;82.20;;;;;;6093502;23;20045;-65
2021/06/26 03:40:09;;;;;;;22.00;6.10;;;15.10;82.10;;;;;;6093538;23;20445;-65
2021/06/26 03:43:15;;;;;;;14.38;4.80;;;15.20;82.10;;;;;;6092325;23;20011;-65
2021/06/26 03:45:42;;;;;;;45.90;25.58;;;15.10;82.10;;;;;;6093440;23;20368;-64
2021/06/26 03:48:08;;;;;;;21.35;10.55;;;15.10;82.10;;;;;;6092976;23;20003;-65
2021/06/26 03:50:36;;;;;;;23.58;10.68;;;15.10;82.10;;;;;;6092787;23;20017;-65
2021/06/26 03:53:03;;;;;;;26.25;10.10;;;15.10;82.00;;;;;;6093758;23;20360;-65
2021/06/26 03:55:29;;;;;;;15.52;8.27;;;15.10;82.00;;;;;;6092653;23;20029;-65
2021/06/26 03:57:56;;;;;;;18.75;8.32;;;15.10;82.00;;;;;;6093435;23;20327;-65
2021/06/26 04:00:22;;;;;;;19.13;7.90;;;15.10;81.90;;;;;;6092185;23;20006;-64
2021/06/26 04:02:49;;;;;;;25.00;7.90;;;15.10;82.00;;;;;;6093685;23;20002;-65
2021/06/26 04:05:15;;;;;;;21.00;7.97;;;15.10;82.00;;;;;;6093010;23;20006;-66
2021/06/26 04:07:42;;;;;;;15.90;7.28;;;15.10;82.00;;;;;;6092719;23;20152;-66
2021/06/26 04:10:09;;;;;;;21.65;6.45;;;15.10;82.10;;;;;;6093395;23;20018;-66
2021/06/26 04:12:36;;;;;;;17.02;5.93;;;15.10;82.20;;;;;;6092107;23;20005;-65
2021/06/26 04:15:02;;;;;;;17.55;5.43;;;15.10;82.30;;;;;;6093293;23;20431;-65
2021/06/26 04:17:29;;;;;;;20.63;5.80;;;15.10;82.40;;;;;;6092271;23;20327;-65
2021/06/26 04:19:55;;;;;;;23.63;7.15;;;15.10;82.50;;;;;;6093633;23;20536;-65
2021/06/26 04:22:22;;;;;;;23.00;6.57;;;15.10;82.50;;;;;;6092747;23;19998;-65
2021/06/26 04:24:48;;;;;;;19.83;5.03;;;15.00;82.40;;;;;;6093018;23;20006;-65
2021/06/26 04:27:15;;;;;;;18.85;4.38;;;15.10;82.40;;;;;;6093044;23;19999;-64
2021/06/26 04:29:42;;;;;;;18.10;5.20;;;15.10;82.20;;;;;;6092048;23;20011;-65
2021/06/26 04:32:08;;;;;;;14.88;4.85;;;15.10;82.10;;;;;;6093061;23;20085;-64
2021/06/26 04:34:35;;;;;;;12.30;5.15;;;15.10;82.00;;;;;;6092154;23;20056;-64
2021/06/26 04:37:01;;;;;;;16.73;4.75;;;15.10;81.80;;;;;;6093204;23;20003;-65
2021/06/26 04:39:28;;;;;;;15.75;5.18;;;15.10;81.90;;;;;;6091964;23;20002;-64
2021/06/26 04:41:54;;;;;;;19.08;6.30;;;15.10;82.00;;;;;;6093717;23;20073;-64
2021/06/26 04:44:21;;;;;;;23.13;5.25;;;15.10;82.00;;;;;;6092550;23;20003;-64
2021/06/26 04:46:47;;;;;;;23.25;5.88;;;15.10;81.90;;;;;;6092493;23;20022;-65
2021/06/26 04:49:14;;;;;;;19.10;5.13;;;15.10;81.90;;;;;;6093278;23;20070;-64
2021/06/26 04:51:40;;;;;;;20.10;5.30;;;15.20;81.80;;;;;;6091133;23;20002;-65
2021/06/26 04:54:07;;;;;;;23.23;5.18;;;15.20;81.80;;;;;;6093375;23;20113;-65
2021/06/26 04:56:34;;;;;;;20.73;4.88;;;15.20;81.70;;;;;;6091862;23;20018;-65
2021/06/26 04:59:00;;;;;;;27.00;4.72;;;15.10;81.20;;;;;;6092911;23;20086;-65
2021/06/26 05:01:27;;;;;;;19.38;5.28;;;15.10;80.90;;;;;;6091916;23;20002;-65
2021/06/26 05:03:54;;;;;;;17.50;4.13;;;15.10;80.50;;;;;;6091420;23;20003;-64
2021/06/26 05:06:20;;;;;;;15.68;4.47;;;15.20;80.40;;;;;;6091650;23;20002;-65
2021/06/26 05:08:47;;;;;;;20.63;4.40;;;15.20;80.20;;;;;;6090634;23;20018;-65
2021/06/26 05:11:13;;;;;;;23.27;3.92;;;15.20;79.90;;;;;;6092037;23;20474;-65
2021/06/26 05:13:40;;;;;;;15.02;5.03;;;15.20;79.70;;;;;;6091230;23;20014;-66
2021/06/26 05:16:07;;;;;;;17.05;4.80;;;15.20;79.30;;;;;;6093943;23;20058;-65
2021/06/26 05:18:34;;;;;;;22.17;4.57;;;15.20;79.00;;;;;;6092595;23;20009;-65
2021/06/26 05:21:03;;;;;;;20.77;5.82;;;15.20;78.30;;;;;;6093296;23;20025;-66
2021/06/26 05:23:30;;;;;;;15.30;3.83;;;15.10;77.90;;;;;;6092890;23;20019;-65
2021/06/26 05:25:57;;;;;;;16.15;4.20;;;15.20;77.70;;;;;;6092421;23;20078;-66
2021/06/26 05:28:24;;;;;;;17.20;4.68;;;15.10;77.30;;;;;;6093654;23;20086;-66
2021/06/26 05:30:51;;;;;;;16.63;4.40;;;15.10;77.00;;;;;;6092383;23;20067;-65
2021/06/26 05:33:18;;;;;;;13.07;4.63;;;15.10;76.70;;;;;;6093441;23;20435;-67
2021/06/26 05:35:46;;;;;;;17.60;5.25;;;15.10;76.60;;;;;;6092500;23;19998;-66
2021/06/26 05:38:13;;;;;;;15.70;4.57;;;15.10;76.60;;;;;;6093160;23;20078;-65
2021/06/26 05:40:40;;;;;;;11.15;4.07;;;15.10;76.50;;;;;;6090705;23;20007;-66
2021/06/26 05:43:07;;;;;;;15.15;3.85;;;15.10;76.40;;;;;;6092629;23;20001;-66
2021/06/26 05:45:33;;;;;;;20.65;4.13;;;15.10;76.20;;;;;;6094346;23;20431;-66
2021/06/26 05:48:00;;;;;;;19.08;4.30;;;15.10;76.20;;;;;;6093422;23;20034;-66
2021/06/26 05:50:26;;;;;;;14.73;3.63;;;15.10;75.90;;;;;;6093647;23;20025;-66
2021/06/26 05:52:54;;;;;;;13.35;4.13;;;15.10;75.60;;;;;;6092985;23;19998;-66
2021/06/26 05:56:00;;;;;;;16.38;4.80;;;15.10;75.40;;;;;;6094010;23;20085;-66
2021/06/26 05:59:06;;;;;;;21.67;4.88;;;15.10;75.10;;;;;;6094175;23;20002;-66
2021/06/26 06:02:13;;;;;;;19.33;5.10;;;15.10;74.80;;;;;;6092581;23;20018;-66
2021/06/26 06:05:22;;;;;;;15.60;3.22;;;15.10;74.70;;;;;;6093276;23;20330;-66
2021/06/26 06:08:28;;;;;;;13.98;4.93;;;15.10;75.10;;;;;;6093410;23;20442;-67
2021/06/26 06:11:34;;;;;;;15.98;4.00;;;15.10;76.00;;;;;;6092540;23;20019;-67
2021/06/26 06:14:40;;;;;;;15.35;3.53;;;15.10;75.50;;;;;;6088908;23;20030;-66
2021/06/26 06:18:02;;;;;;;11.55;3.72;;;15.10;75.50;;;;;;6091105;23;20026;-66
2021/06/26 06:21:08;;;;;;;17.02;4.75;;;15.10;75.50;;;;;;6093139;23;20077;-66
2021/06/26 06:24:14;;;;;;;15.75;3.67;;;15.00;75.40;;;;;;6090507;23;20049;-66
2021/06/26 06:27:20;;;;;;;19.35;4.72;;;15.10;75.30;;;;;;6091717;23;20006;-67
2021/06/26 06:30:26;;;;;;;13.93;3.15;;;15.10;75.10;;;;;;6092546;23;20414;-65
2021/06/26 06:33:32;;;;;;;24.48;5.97;;;15.10;75.30;;;;;;6092550;23;20002;-66
2021/06/26 06:36:38;;;;;;;18.55;4.05;;;15.10;75.40;;;;;;6091704;23;20070;-67
2021/06/26 06:39:44;;;;;;;16.20;5.28;;;15.10;75.10;;;;;;6092621;23;20002;-70
2021/06/26 06:42:50;;;;;;;13.38;4.68;;;15.10;75.00;;;;;;6093183;23;20002;-71
2021/06/26 06:45:57;;;;;;;14.65;3.55;;;15.10;75.10;;;;;;6091865;23;20325;-64
2021/06/26 06:49:03;;;;;;;18.65;4.45;;;15.20;75.40;;;;;;6091163;23;20007;-65
2021/06/26 06:52:09;;;;;;;11.23;3.67;;;15.20;75.60;;;;;;6092479;23;20073;-64
2021/06/26 06:55:15;;;;;;;22.02;6.93;;;15.20;75.80;;;;;;6092404;23;20025;-64
2021/06/26 06:58:21;;;;;;;13.77;4.25;;;15.20;75.90;;;;;;6091341;23;20077;-64
2021/06/26 07:01:27;;;;;;;18.77;4.55;;;15.20;75.80;;;;;;6092132;23;20030;-63
2021/06/26 07:03:54;;;;;;;;;;;15.20;75.50;;;;;;6094325;23;20006;-68
2021/06/26 07:06:20;;;;;;;14.88;5.00;;;15.20;75.30;;;;;;6091394;23;19936;-66
2021/06/26 07:08:47;;;;;;;17.65;5.22;;;15.20;75.20;;;;;;6093873;23;20018;-68
2021/06/26 07:11:13;;;;;;;18.08;5.13;;;15.20;74.90;;;;;;6093654;23;20003;-68
2021/06/26 07:13:40;;;;;;;11.48;4.00;;;15.20;74.70;;;;;;6093334;23;20439;-68
2021/06/26 07:16:06;;;;;;;15.07;4.47;;;15.30;74.70;;;;;;6093831;23;20074;-67
2021/06/26 07:18:33;;;;;;;15.10;3.35;;;15.30;74.70;;;;;;6092381;23;19994;-67
2021/06/26 07:20:59;;;;;;;19.95;5.18;;;15.30;74.70;;;;;;6093724;23;20287;-66
2021/06/26 07:23:26;;;;;;;14.63;4.15;;;15.30;74.70;;;;;;6091315;23;20438;-66
2021/06/26 07:25:52;;;;;;;13.30;4.20;;;15.40;74.60;;;;;;6094139;23;20033;-66
2021/06/26 07:28:19;;;;;;;14.90;4.47;;;15.40;74.40;;;;;;6092812;23;20005;-66
2021/06/26 07:30:45;;;;;;;16.20;4.20;;;15.40;74.40;;;;;;6093544;23;20013;-66
2021/06/26 07:33:12;;;;;;;17.33;4.85;;;15.40;74.40;;;;;;6093294;23;20002;-67
2021/06/26 07:35:38;;;;;;;22.00;4.82;;;15.40;74.40;;;;;;6092930;23;20073;-67
2021/06/26 07:38:05;;;;;;;17.42;4.35;;;15.40;74.40;;;;;;6093608;23;20003;-67
2021/06/26 07:40:32;;;;;;;21.70;5.28;;;15.40;74.50;;;;;;6092418;23;20009;-65
2021/06/26 07:42:58;;;;;;;13.57;4.38;;;15.50;74.60;;;;;;6094391;23;20047;-64
2021/06/26 07:45:25;;;;;;;12.38;3.60;;;15.50;74.70;;;;;;6092639;23;20115;-64
2021/06/26 07:47:51;;;;;;;15.15;4.97;;;15.50;74.80;;;;;;6093382;23;20002;-65
2021/06/26 07:50:18;;;;;;;15.73;5.05;;;15.50;74.70;;;;;;6093078;23;20014;-65
2021/06/26 07:52:44;;;;;;;15.95;4.00;;;15.50;74.70;;;;;;6093120;23;20335;-65
2021/06/26 07:55:11;;;;;;;12.60;4.00;;;15.50;74.70;;;;;;6093450;23;20005;-65
2021/06/26 07:57:37;;;;;;;12.25;4.15;;;15.50;74.70;;;;;;6092223;23;20010;-65
2021/06/26 08:00:08;;;;;;;9.15;3.90;;;15.60;74.80;;;;;;6093717;23;20002;-65
2021/06/26 08:02:35;;;;;;;18.90;6.32;;;15.60;74.80;;;;;;6092320;23;20145;-66
2021/06/26 08:05:02;;;;;;;13.70;4.28;;;15.60;74.70;;;;;;6093282;23;20002;-67
2021/06/26 08:07:29;;;;;;;10.65;3.67;;;15.60;74.60;;;;;;6092519;23;19998;-67
2021/06/26 08:09:55;;;;;;;18.17;4.53;;;15.60;74.50;;;;;;6092427;23;20312;-65
2021/06/26 08:12:22;;;;;;;18.27;4.38;;;15.60;74.50;;;;;;6093267;23;20002;-65
2021/06/26 08:14:48;;;;;;;18.27;4.95;;;15.70;74.50;;;;;;6092092;23;20013;-64
2021/06/26 08:17:15;;;;;;;21.27;5.40;;;15.70;74.50;;;;;;6093226;23;20371;-65
2021/06/26 08:19:42;;;;;;;20.80;5.80;;;15.70;74.40;;;;;;6092512;23;19998;-66
2021/06/26 08:22:09;;;;;;;13.60;3.67;;;15.70;74.00;;;;;;6093342;23;20002;-66
2021/06/26 08:24:36;;;;;;;16.58;5.35;;;15.80;73.10;;;;;;6092418;23;20073;-66
2021/06/26 08:27:03;;;;;;;20.83;4.13;;;15.80;72.30;;;;;;6092936;23;19998;-66
2021/06/26 08:30:09;;;;;;;13.57;4.95;;;15.90;71.90;;;;;;6092913;23;20006;-65
2021/06/26 08:33:15;;;;;;;19.85;5.50;;;15.90;71.40;;;;;;6091812;23;19999;-65
2021/06/26 08:36:21;;;;;;;18.42;4.53;;;15.90;71.40;;;;;;6092024;23;20010;-65
2021/06/26 08:38:48;;;;;;;18.52;5.03;;;16.00;70.50;;;;;;6092770;23;20482;-65
2021/06/26 08:41:18;;;;;;;21.05;5.78;;;16.00;70.40;;;;;;6092059;23;20007;-66
2021/06/26 08:43:45;;;;;;;20.95;5.95;;;16.10;70.80;;;;;;6093232;23;20002;-66
2021/06/26 08:46:13;;;;;;;10.55;3.88;;;16.10;71.10;;;;;;6091987;23;20002;-66
2021/06/26 08:48:40;;;;;;;17.13;4.70;;;16.10;71.10;;;;;;6093179;23;20072;-66
2021/06/26 08:51:07;;;;;;;10.32;3.85;;;16.10;70.60;;;;;;6093138;23;20054;-66
2021/06/26 08:53:35;;;;;;;11.57;3.30;;;16.10;69.70;;;;;;6092242;23;20030;-66
2021/06/26 08:56:02;;;;;;;17.70;4.28;;;16.10;68.60;;;;;;6093265;23;20419;-66
2021/06/26 08:58:28;;;;;;;12.98;3.42;;;16.10;68.30;;;;;;6091640;23;19999;-66
2021/06/26 09:00:55;;;;;;;17.63;3.97;;;16.10;68.50;;;;;;6093616;23;20002;-66
2021/06/26 09:03:23;;;;;;;12.00;3.67;;;16.10;68.80;;;;;;6091396;23;20034;-66
2021/06/26 09:05:50;;;;;;;19.73;5.50;;;16.20;69.20;;;;;;6093038;23;20093;-66
2021/06/26 09:08:18;;;;;;;16.95;4.90;;;16.10;69.70;;;;;;6092204;23;20042;-66
2021/06/26 09:10:47;;;;;;;18.27;5.03;;;16.20;70.20;;;;;;6092389;23;20053;-66
2021/06/26 09:13:23;;;;;;;17.70;5.60;;;16.20;70.50;;;;;;6093695;23;20006;-66
2021/06/26 09:15:50;;;;;;;22.92;4.45;;;16.20;70.70;;;;;;6092366;23;20133;-66
2021/06/26 09:18:19;;;;;;;15.68;4.78;;;16.20;70.70;;;;;;6092954;23;20038;-65
2021/06/26 09:20:53;;;;;;;19.63;4.97;;;16.30;70.70;;;;;;6091609;23;20415;-66
2021/06/26 09:23:32;;;;;;;20.20;4.03;;;16.20;70.40;;;;;;6092807;23;20010;-66
2021/06/26 09:26:10;;;;;;;19.13;6.40;;;16.30;70.40;;;;;;6092834;23;20026;-65
2021/06/26 09:28:38;;;;;;;15.85;4.40;;;16.30;70.00;;;;;;6091669;23;20010;-65
2021/06/26 09:31:25;;;;;;;10.98;3.58;;;16.30;69.80;;;;;;6093568;23;20354;-66
2021/06/26 09:34:00;;;;;;;16.67;5.38;;;16.30;69.60;;;;;;6090918;23;20007;-66
2021/06/26 09:36:33;;;;;;;20.93;5.70;;;16.40;69.30;;;;;;6092638;23;20085;-66
2021/06/26 09:39:02;;;;;;;12.10;5.28;;;16.40;69.10;;;;;;6092860;23;20308;-66
2021/06/26 09:41:29;;;;;;;11.75;3.30;;;16.40;69.10;;;;;;6091698;23;19999;-66
2021/06/26 09:44:10;;;;;;;14.05;3.95;;;16.40;69.10;;;;;;6092869;23;20010;-66
2021/06/26 09:46:51;;;;;;;12.90;4.63;;;16.40;68.80;;;;;;6091584;23;20003;-66
2021/06/26 09:49:30;;;;;;;17.52;3.70;;;16.40;68.70;;;;;;6092659;23;20014;-66
2021/06/26 09:52:02;;;;;;;13.27;4.00;;;16.40;68.90;;;;;;6092750;23;20002;-66
2021/06/26 09:54:30;;;;;;;16.17;4.47;;;16.40;69.10;;;;;;6092007;23;20049;-66
2021/06/26 09:56:56;;;;;;;13.52;3.33;;;16.40;69.40;;;;;;6093148;23;20359;-66
2021/06/26 09:59:32;;;;;;;9.88;4.40;;;16.40;69.50;;;;;;6092393;23;20003;-66
2021/06/26 10:01:58;;;;;;;;;;;16.50;70.20;;;;;;6095499;23;20013;-66
2021/06/26 10:04:25;;;;;;;13.75;4.43;;;16.40;69.70;;;;;;6094042;23;19908;-65
2021/06/26 10:06:54;;;;;;;14.45;4.97;;;16.50;70.00;;;;;;6093983;23;20593;-66
2021/06/26 10:09:20;;;;;;;16.75;4.45;;;16.50;70.10;;;;;;6094561;23;20030;-66
2021/06/26 10:11:48;;;;;;;11.88;3.30;;;16.50;70.20;;;;;;6093098;23;20011;-66
2021/06/26 10:14:15;;;;;;;14.48;4.18;;;16.50;70.90;;;;;;6094206;23;20450;-66
2021/06/26 10:16:42;;;;;;;14.40;3.72;;;16.60;70.40;;;;;;6093400;23;20006;-66
2021/06/26 10:19:11;;;;;;;10.77;3.92;;;16.60;70.50;;;;;;6094404;23;20026;-66
2021/06/26 10:21:40;;;;;;;13.00;4.32;;;16.60;70.40;;;;;;6093482;23;19998;-66
2021/06/26 10:24:24;;;;;;;13.98;4.45;;;16.60;70.50;;;;;;6093936;23;20041;-66
2021/06/26 10:26:51;;;;;;;17.83;3.88;;;16.60;70.70;;;;;;6094423;23;20033;-65
2021/06/26 10:29:33;;;;;;;19.63;3.85;;;16.70;70.80;;;;;;6093077;23;20014;-66
2021/06/26 10:32:10;;;;;;;19.15;4.72;;;16.70;70.80;;;;;;6094560;23;20095;-65
2021/06/26 10:34:42;;;;;;;16.08;4.88;;;16.80;70.90;;;;;;6093809;23;20036;-66
2021/06/26 10:37:38;;;;;;;11.90;4.38;;;16.80;70.50;;;;;;6094244;23;20312;-66
2021/06/26 10:40:08;;;;;;;22.25;4.53;;;16.90;70.00;;;;;;6070788;23;20403;-65
2021/06/26 10:42:39;;;;;;;13.57;3.45;;;17.00;69.40;;;;;;6092795;23;19998;-66
2021/06/26 10:45:08;;;;;;;14.85;3.50;;;17.00;69.00;;;;;;6094292;23;20033;-65
2021/06/26 10:47:36;;;;;;;7.65;3.45;;;17.00;68.50;;;;;;6092877;23;20002;-65
2021/06/26 10:50:11;;;;;;;11.10;3.95;;;17.00;67.90;;;;;;6093853;23;20366;-66
2021/06/26 10:52:48;;;;;;;9.90;2.75;;;16.90;67.30;;;;;;6094173;23;20003;-66
2021/06/26 10:55:37;;;;;;;10.02;2.78;;;17.00;66.90;;;;;;6092751;23;20034;-66
2021/06/26 10:58:05;;;;;;;17.73;4.15;;;17.00;66.60;;;;;;6092342;23;20006;-66
2021/06/26 11:00:37;;;;;;;8.85;4.18;;;17.00;66.50;;;;;;6093617;23;20003;-66
2021/06/26 11:03:06;;;;;;;14.85;3.78;;;17.00;66.30;;;;;;6093995;23;20002;-66
2021/06/26 11:05:34;;;;;;;8.95;2.63;;;17.00;66.20;;;;;;6093824;23;20002;-66
2021/06/26 11:08:12;;;;;;;15.73;3.17;;;17.00;66.10;;;;;;6092133;23;20037;-72
2021/06/26 11:10:49;;;;;;;15.52;3.50;;;17.00;65.70;;;;;;6093251;23;20021;-69
2021/06/26 11:13:20;;;;;;;12.98;4.63;;;17.00;65.40;;;;;;6092326;23;20137;-67
2021/06/26 11:15:46;;;;;;;15.52;5.30;;;17.00;64.70;;;;;;6093628;23;20017;-67
2021/06/26 11:18:55;;;;;;;24.60;5.07;;;17.10;64.20;;;;;;6093721;23;20054;-68
2021/06/26 11:22:04;;;;;;;17.90;5.80;;;17.10;64.40;;;;;;6091855;23;20006;-67
2021/06/26 11:25:13;;;;;;;16.90;4.88;;;17.10;64.90;;;;;;6093344;23;20014;-67
2021/06/26 11:28:02;;;;;;;16.73;4.72;;;17.10;65.00;;;;;;6093648;23;20022;-66
2021/06/26 11:31:18;;;;;;;20.13;5.45;;;17.10;65.30;;;;;;6092142;23;20021;-66
2021/06/26 11:33:45;;;;;;;17.13;4.68;;;17.10;65.90;;;;;;6092369;23;20033;-69
2021/06/26 11:36:13;;;;;;;14.73;3.95;;;17.10;66.20;;;;;;6093838;23;20481;-66
2021/06/26 11:38:41;;;;;;;19.48;5.10;;;17.10;66.50;;;;;;6092912;23;20011;-66
2021/06/26 11:41:10;;;;;;;17.02;4.93;;;17.10;66.70;;;;;;6093340;23;19998;-67
2021/06/26 11:43:37;;;;;;;10.63;3.40;;;17.10;67.00;;;;;;6092051;23;20017;-66
2021/06/26 11:46:05;;;;;;;15.02;4.35;;;17.10;67.30;;;;;;6093191;23;20002;-67
2021/06/26 11:48:32;;;;;;;16.60;4.63;;;17.10;67.50;;;;;;6092996;23;20506;-66
2021/06/26 11:51:05;;;;;;;16.02;4.40;;;17.20;67.60;;;;;;6093109;23;20554;-70
2021/06/26 11:53:36;;;;;;;21.50;6.95;;;17.20;67.50;;;;;;6093260;23;19998;-67
2021/06/26 11:56:04;;;;;;;22.80;4.53;;;17.20;67.50;;;;;;6091541;23;20002;-65
2021/06/26 11:58:44;;;;;;;17.20;3.90;;;17.20;67.60;;;;;;6090217;23;20006;-65
2021/06/26 12:01:13;;;;;;;8.80;3.92;;;17.30;67.10;;;;;;6089580;23;20057;-68
2021/06/26 12:03:41;;;;;;;12.07;4.15;;;17.30;66.60;;;;;;6089738;23;20030;-69
2021/06/26 12:06:13;;;;;;;19.42;3.97;;;17.30;65.90;;;;;;6090934;23;20013;-69
2021/06/26 12:08:48;;;;;;;12.65;3.35;;;17.30;64.60;;;;;;6089571;23;20022;-69
2021/06/26 12:11:18;;;;;;;13.65;3.75;;;17.40;64.20;;;;;;6091392;23;20538;-68
2021/06/26 12:13:46;;;;;;;11.40;3.15;;;17.50;63.50;;;;;;6089758;23;20038;-68
2021/06/26 12:16:18;;;;;;;9.82;2.90;;;17.50;62.10;;;;;;6091584;23;20367;-69
2021/06/26 12:18:54;;;;;;;14.65;3.17;;;17.60;62.20;;;;;;6091011;23;20010;-70
2021/06/26 12:21:25;;;;;;;17.13;3.70;;;17.60;61.70;;;;;;6090488;23;20596;-66
2021/06/26 12:23:53;;;;;;;8.85;3.08;;;17.70;61.90;;;;;;6092311;23;20431;-68
2021/06/26 12:26:25;;;;;;;7.95;2.83;;;17.70;61.80;;;;;;6090621;23;20439;-68
2021/06/26 12:28:53;;;;;;;17.23;3.83;;;17.80;61.70;;;;;;6092183;23;20431;-67
2021/06/26 12:31:21;;;;;;;11.50;4.18;;;17.80;61.10;;;;;;6090950;23;20025;-68
2021/06/26 12:34:03;;;;;;;9.63;2.88;;;17.90;60.90;;;;;;6092310;23;20010;-68
2021/06/26 12:36:30;;;;;;;13.75;3.55;;;17.90;61.60;;;;;;6092315;23;20030;-68
2021/06/26 12:38:57;;;;;;;14.55;2.88;;;17.90;60.70;;;;;;6090975;23;19999;-65
2021/06/26 12:42:04;;;;;;;12.40;3.58;;;18.00;60.50;;;;;;6091812;23;20002;-66
2021/06/26 12:45:10;;;;;;;13.07;3.97;;;18.00;59.60;;;;;;6091033;23;20007;-67
2021/06/26 12:48:29;;;;;;;15.63;3.17;;;17.90;60.00;;;;;;6090892;23;20017;-68
2021/06/26 12:51:39;;;;;;;10.52;3.30;;;17.90;60.60;;;;;;6092280;23;20006;-68
2021/06/26 12:54:09;;;;;;;12.30;3.40;;;17.80;61.30;;;;;;6092368;23;20026;-68
2021/06/26 12:56:37;;;;;;;12.13;3.00;;;17.80;61.70;;;;;;6091991;23;20340;-71
2021/06/26 12:59:06;;;;;;;11.93;4.80;;;17.80;62.00;;;;;;6090810;23;20340;-68
2021/06/26 13:01:46;;;;;;;11.63;3.22;;;17.80;62.20;;;;;;6091448;23;20842;-68
2021/06/26 13:04:19;;;;;;;12.40;2.53;;;17.70;62.60;;;;;;6092318;23;20002;-66
2021/06/26 13:06:51;;;;;;;13.35;2.53;;;17.70;62.80;;;;;;6092759;23;20002;-67
2021/06/26 13:09:18;;;;;;;11.20;3.05;;;17.70;62.70;;;;;;6090680;23;20427;-68
2021/06/26 13:11:46;;;;;;;10.65;3.22;;;17.70;62.60;;;;;;6092477;23;20029;-67
2021/06/26 13:14:17;;;;;;;6.50;2.97;;;17.70;62.70;;;;;;6090901;23;20002;-68